createdAt,value
2022-11-29T00:01:40.384Z,14.80
2022-11-29T00:04:09.113Z,15.97
2022-11-29T00:06:37.914Z,15.50
2022-11-29T00:09:09.399Z,16.10
2022-11-29T00:11:56.738Z,15.60
2022-11-29T00:14:26.051Z,15.67
2022-11-29T00:16:57.076Z,15.43
2022-11-29T00:19:25.749Z,17.10
2022-11-29T00:21:54.541Z,15.30
2022-11-29T00:24:24.935Z,15.93
2022-11-29T00:26:53.553Z,15.70
2022-11-29T00:29:22.154Z,35.20
2022-11-29T00:31:50.824Z,15.50
2022-11-29T00:34:19.519Z,15.50
2022-11-29T00:36:48.152Z,14.77
2022-11-29T00:39:16.801Z,16.17
2022-11-29T00:41:47.456Z,14.13
2022-11-29T00:44:20.226Z,15.17
2022-11-29T00:46:49.406Z,14.53
2022-11-29T00:49:18.190Z,14.50
2022-11-29T00:51:46.927Z,15.23
2022-11-29T00:54:15.617Z,13.93
2022-11-29T00:56:45.867Z,14.80
2022-11-29T00:59:14.488Z,15.17
2022-11-29T01:01:43.139Z,14.80
2022-11-29T01:04:11.771Z,14.50
2022-11-29T01:06:40.446Z,14.70
2022-11-29T01:09:09.036Z,15.27
2022-11-29T01:11:37.888Z,16.20
2022-11-29T01:14:07.846Z,14.73
2022-11-29T01:16:36.493Z,15.10
2022-11-29T01:19:07.182Z,13.57
2022-11-29T01:21:35.890Z,14.17
2022-11-29T01:24:04.800Z,15.57
2022-11-29T01:26:33.455Z,15.70
2022-11-29T01:29:02.027Z,13.90
2022-11-29T01:31:35.929Z,14.37
2022-11-29T01:34:06.196Z,16.70
2022-11-29T01:36:35.258Z,15.10
2022-11-29T01:39:05.602Z,15.20
2022-11-29T01:41:36.287Z,14.77
2022-11-29T01:44:07.188Z,13.43
2022-11-29T01:46:38.793Z,13.90
2022-11-29T01:49:12.669Z,14.03
2022-11-29T01:51:44.609Z,13.97
2022-11-29T01:54:14.015Z,14.90
2022-11-29T01:56:43.483Z,14.33
2022-11-29T01:59:14.412Z,14.80
2022-11-29T02:01:44.411Z,14.10
2022-11-29T02:04:13.146Z,14.93
2022-11-29T02:06:42.542Z,13.27
2022-11-29T02:09:17.869Z,13.93
2022-11-29T02:12:00.112Z,14.07
2022-11-29T02:14:48.105Z,14.40
2022-11-29T02:17:23.737Z,14.97
2022-11-29T02:20:06.818Z,14.43
2022-11-29T02:22:40.222Z,14.40
2022-11-29T02:25:23.566Z,14.33
2022-11-29T02:28:13.390Z,13.80
2022-11-29T02:30:56.568Z,14.97
2022-11-29T02:33:50.910Z,13.93
2022-11-29T02:36:38.383Z,14.27
2022-11-29T02:39:27.645Z,13.87
2022-11-29T02:42:07.512Z,13.90
2022-11-29T02:44:47.762Z,14.80
2022-11-29T02:47:26.732Z,13.50
2022-11-29T02:50:13.122Z,14.70
2022-11-29T02:52:49.074Z,14.57
2022-11-29T02:55:22.448Z,15.17
2022-11-29T02:57:58.573Z,13.60
2022-11-29T03:00:27.572Z,14.40
2022-11-29T03:03:02.171Z,13.70
2022-11-29T03:05:40.851Z,15.17
2022-11-29T03:08:18.020Z,15.10
2022-11-29T03:10:56.651Z,14.23
2022-11-29T03:13:31.972Z,14.63
2022-11-29T03:16:07.305Z,14.20
2022-11-29T03:18:45.907Z,15.40
2022-11-29T03:21:20.398Z,14.90
2022-11-29T03:23:50.636Z,14.07
2022-11-29T03:26:24.094Z,13.60
2022-11-29T03:29:01.238Z,15.83
2022-11-29T03:31:33.305Z,14.90
2022-11-29T03:34:09.990Z,14.60
2022-11-29T03:36:45.704Z,13.47
2022-11-29T03:39:19.172Z,14.50
2022-11-29T03:41:50.790Z,15.00
2022-11-29T03:44:22.341Z,14.60
2022-11-29T03:46:55.421Z,13.43
2022-11-29T03:49:27.586Z,13.70
2022-11-29T03:52:04.010Z,13.70
2022-11-29T03:54:36.954Z,13.50
2022-11-29T03:57:06.783Z,13.80
2022-11-29T03:59:48.275Z,14.80
2022-11-29T04:03:16.383Z,14.17
2022-11-29T04:05:55.584Z,14.03
2022-11-29T04:08:47.450Z,13.20
2022-11-29T04:11:58.910Z,13.80
2022-11-29T04:15:09.521Z,13.83
2022-11-29T04:18:13.509Z,14.10
2022-11-29T04:21:02.356Z,13.40
2022-11-29T04:23:50.931Z,13.63
2022-11-29T04:26:35.065Z,12.97
2022-11-29T04:29:14.714Z,13.10
2022-11-29T04:31:59.571Z,14.20
2022-11-29T04:34:44.217Z,13.50
2022-11-29T04:37:23.126Z,14.20
2022-11-29T04:40:06.302Z,13.50
2022-11-29T04:43:07.652Z,13.33
2022-11-29T04:45:54.158Z,14.40
2022-11-29T04:48:34.694Z,14.23
2022-11-29T04:51:14.052Z,13.17
2022-11-29T04:53:56.331Z,13.80
2022-11-29T04:56:32.592Z,13.67
2022-11-29T04:59:04.466Z,12.87
2022-11-29T05:01:39.971Z,14.37
2022-11-29T05:04:15.173Z,13.70
2022-11-29T05:06:49.441Z,13.63
2022-11-29T05:09:26.197Z,13.57
2022-11-29T05:12:01.718Z,13.67
2022-11-29T05:14:37.246Z,13.13
2022-11-29T05:17:21.838Z,13.17
2022-11-29T05:19:57.726Z,13.10
2022-11-29T05:22:32.863Z,12.57
2022-11-29T05:25:13.842Z,13.93
2022-11-29T05:27:47.080Z,14.23
2022-11-29T05:30:16.434Z,12.83
2022-11-29T05:32:54.060Z,13.30
2022-11-29T05:35:51.659Z,13.73
2022-11-29T05:38:33.050Z,13.77
2022-11-29T05:41:13.454Z,13.27
2022-11-29T05:43:54.985Z,13.43
2022-11-29T05:46:27.860Z,13.97
2022-11-29T05:49:02.438Z,14.77
2022-11-29T05:51:39.010Z,14.00
2022-11-29T05:54:15.992Z,13.53
2022-11-29T05:56:50.101Z,13.90
2022-11-29T05:59:22.519Z,13.77
2022-11-29T06:01:58.529Z,14.27
2022-11-29T06:04:31.947Z,12.97
2022-11-29T06:07:05.486Z,13.60
2022-11-29T06:09:37.321Z,12.87
2022-11-29T06:12:10.944Z,13.17
2022-11-29T06:15:03.979Z,14.37
2022-11-29T06:17:43.777Z,13.80
2022-11-29T06:20:31.531Z,14.20
2022-11-29T06:23:23.155Z,13.70
2022-11-29T06:26:04.143Z,12.87
2022-11-29T06:28:43.920Z,13.87
2022-11-29T06:31:17.770Z,13.03
2022-11-29T06:33:53.879Z,11.90
2022-11-29T06:36:27.997Z,11.80
2022-11-29T06:38:56.884Z,11.93
2022-11-29T06:41:26.297Z,13.23
2022-11-29T06:43:55.398Z,11.37
2022-11-29T06:46:35.743Z,11.90
2022-11-29T06:49:08.514Z,11.17
2022-11-29T06:51:42.102Z,11.07
2022-11-29T06:54:20.995Z,11.03
2022-11-29T06:56:53.391Z,13.00
2022-11-29T06:59:33.343Z,10.80
2022-11-29T07:02:10.262Z,11.07
2022-11-29T07:04:49.682Z,10.77
2022-11-29T07:07:21.136Z,11.03
2022-11-29T07:09:52.760Z,10.77
2022-11-29T07:12:22.057Z,10.97
2022-11-29T07:14:51.170Z,10.30
2022-11-29T07:17:25.071Z,11.90
2022-11-29T07:20:02.597Z,9.87
2022-11-29T07:22:41.174Z,10.37
2022-11-29T07:25:20.247Z,10.93
2022-11-29T07:27:56.582Z,11.20
2022-11-29T07:30:29.316Z,11.67
2022-11-29T07:33:07.189Z,11.23
2022-11-29T07:35:43.315Z,10.60
2022-11-29T07:38:19.251Z,10.40
2022-11-29T07:40:53.431Z,9.90
2022-11-29T07:43:30.763Z,10.00
2022-11-29T07:45:59.507Z,9.60
2022-11-29T07:48:29.439Z,9.80
2022-11-29T07:50:58.249Z,9.73
2022-11-29T07:53:26.877Z,10.17
2022-11-29T07:55:55.551Z,10.03
2022-11-29T07:58:24.326Z,9.97
2022-11-29T08:00:52.996Z,9.50
2022-11-29T08:03:21.722Z,8.70
2022-11-29T08:05:51.712Z,10.80
2022-11-29T08:08:20.376Z,11.13
2022-11-29T08:10:49.706Z,11.03
2022-11-29T08:13:20.182Z,10.17
2022-11-29T08:15:49.485Z,10.70
2022-11-29T08:18:18.512Z,10.50
2022-11-29T08:20:47.160Z,10.40
2022-11-29T08:23:17.199Z,8.90
2022-11-29T08:25:45.835Z,7.90
2022-11-29T08:28:14.417Z,9.03
2022-11-29T08:30:43.018Z,8.40
2022-11-29T08:33:11.668Z,8.67
2022-11-29T08:35:42.087Z,8.80
2022-11-29T08:38:10.750Z,9.23
2022-11-29T08:40:40.755Z,8.50
2022-11-29T08:43:09.413Z,8.93
2022-11-29T08:45:38.087Z,8.80
2022-11-29T08:48:07.634Z,7.40
2022-11-29T08:50:36.315Z,7.13
2022-11-29T08:53:24.875Z,6.97
2022-11-29T08:55:54.835Z,7.73
2022-11-29T08:58:24.066Z,8.20
2022-11-29T09:00:53.189Z,7.97
2022-11-29T09:03:40.069Z,7.20
2022-11-29T09:06:12.560Z,7.30
2022-11-29T09:08:43.675Z,7.43
2022-11-29T09:11:15.972Z,6.60
2022-11-29T09:13:46.505Z,6.10
2022-11-29T09:16:17.941Z,6.10
2022-11-29T09:18:51.954Z,6.90
2022-11-29T09:21:20.821Z,7.13
2022-11-29T09:23:49.433Z,7.63
2022-11-29T09:26:20.637Z,7.50
2022-11-29T09:28:49.236Z,6.33
2022-11-29T09:31:18.040Z,8.10
2022-11-29T09:33:46.854Z,7.43
2022-11-29T09:36:15.882Z,6.30
2022-11-29T09:38:44.620Z,6.67
2022-11-29T09:41:26.871Z,4.87
2022-11-29T09:44:03.519Z,4.77
2022-11-29T09:46:37.719Z,4.67
2022-11-29T09:49:26.885Z,5.00
2022-11-29T09:52:00.981Z,4.57
2022-11-29T09:54:35.877Z,4.77
2022-11-29T09:57:10.884Z,4.27
2022-11-29T09:59:42.750Z,4.17
2022-11-29T10:02:21.316Z,4.30
2022-11-29T10:04:53.950Z,5.17
2022-11-29T10:07:26.452Z,6.60
2022-11-29T10:09:58.059Z,6.77
2022-11-29T10:12:31.869Z,6.70
2022-11-29T10:15:08.311Z,6.43
2022-11-29T10:17:39.920Z,6.40
2022-11-29T10:20:14.236Z,7.00
2022-11-29T10:22:48.294Z,6.90
2022-11-29T10:25:22.835Z,7.57
2022-11-29T10:27:54.400Z,7.63
2022-11-29T10:30:23.486Z,9.20
2022-11-29T10:32:57.129Z,8.90
2022-11-29T10:35:26.107Z,8.90
2022-11-29T10:38:29.103Z,10.00
2022-11-29T10:40:48.884Z,9.43
2022-11-29T10:43:18.899Z,9.10
2022-11-29T10:45:50.627Z,9.60
2022-11-29T10:48:21.196Z,9.50
2022-11-29T10:50:51.615Z,8.70
2022-11-29T10:53:21.659Z,8.83
2022-11-29T10:55:51.741Z,7.40
2022-11-29T10:58:28.063Z,9.20
2022-11-29T11:00:58.938Z,7.57
2022-11-29T11:03:35.092Z,7.93
2022-11-29T11:06:13.618Z,7.13
2022-11-29T11:08:44.314Z,7.53
2022-11-29T11:11:14.143Z,6.50
2022-11-29T11:13:44.227Z,7.27
2022-11-29T11:16:18.141Z,7.70
2022-11-29T11:18:47.913Z,7.80
2022-11-29T11:21:18.613Z,8.87
2022-11-29T11:23:53.829Z,8.23
2022-11-29T11:26:23.134Z,7.60
2022-11-29T11:28:56.204Z,9.20
2022-11-29T11:31:30.147Z,7.53
2022-11-29T11:34:19.380Z,8.40
2022-11-29T11:36:48.077Z,7.00
2022-11-29T11:39:21.221Z,6.53
2022-11-29T11:42:08.806Z,7.37
2022-11-29T11:44:48.887Z,6.97
2022-11-29T11:47:19.563Z,6.67
2022-11-29T11:49:51.174Z,5.67
2022-11-29T11:52:22.001Z,6.20
2022-11-29T11:54:54.195Z,5.90
2022-11-29T11:57:23.397Z,6.43
2022-11-29T11:59:54.948Z,6.10
2022-11-29T12:02:29.004Z,6.70
2022-11-29T12:05:00.577Z,6.50
2022-11-29T12:08:06.111Z,6.37
2022-11-29T12:10:24.939Z,6.83
2022-11-29T12:12:54.784Z,6.90
2022-11-29T12:15:27.322Z,7.00
2022-11-29T12:18:01.700Z,7.30
2022-11-29T12:20:32.339Z,6.50
2022-11-29T12:23:19.783Z,8.07
2022-11-29T12:25:52.415Z,6.47
2022-11-29T12:28:22.368Z,5.90
2022-11-29T12:30:59.373Z,7.30
2022-11-29T12:33:37.441Z,7.50
2022-11-29T12:36:15.458Z,7.10
2022-11-29T12:38:53.867Z,6.50
2022-11-29T12:41:30.666Z,6.67
2022-11-29T12:44:06.607Z,7.17
2022-11-29T12:46:38.174Z,5.93
2022-11-29T12:49:12.719Z,5.77
2022-11-29T12:51:47.630Z,6.47
2022-11-29T12:54:27.168Z,6.03
2022-11-29T12:57:01.267Z,6.00
2022-11-29T12:59:41.858Z,5.17
2022-11-29T13:02:25.427Z,5.43
2022-11-29T13:05:00.050Z,5.40
2022-11-29T13:07:36.224Z,5.00
2022-11-29T13:10:18.439Z,4.97
2022-11-29T13:12:49.705Z,5.43
2022-11-29T13:15:20.474Z,5.60
2022-11-29T13:17:55.765Z,6.03
2022-11-29T13:20:32.776Z,6.13
2022-11-29T13:23:09.183Z,5.60
2022-11-29T13:25:40.239Z,6.20
2022-11-29T13:28:13.154Z,6.70
2022-11-29T13:30:42.161Z,6.40
2022-11-29T13:33:20.118Z,5.77
2022-11-29T13:35:52.340Z,5.43
2022-11-29T13:38:24.502Z,6.17
2022-11-29T13:40:58.350Z,6.93
2022-11-29T13:43:30.997Z,6.20
2022-11-29T13:46:05.569Z,6.10
2022-11-29T13:48:49.201Z,6.43
2022-11-29T13:51:27.084Z,6.00
2022-11-29T13:53:57.012Z,5.60
2022-11-29T13:56:36.827Z,5.73
2022-11-29T13:59:10.224Z,5.53
2022-11-29T14:01:46.970Z,5.73
2022-11-29T14:04:24.600Z,6.77
2022-11-29T14:07:03.854Z,6.30
2022-11-29T14:09:38.632Z,6.07
2022-11-29T14:12:20.602Z,6.27
2022-11-29T14:14:52.489Z,5.93
2022-11-29T14:17:49.138Z,6.50
2022-11-29T14:20:59.249Z,6.00
2022-11-29T14:23:39.037Z,6.67
2022-11-29T14:26:28.758Z,6.60
2022-11-29T14:28:59.116Z,6.33
2022-11-29T14:31:50.532Z,6.80
2022-11-29T14:34:27.783Z,7.60
2022-11-29T14:37:00.597Z,6.30
2022-11-29T14:39:32.503Z,6.70
2022-11-29T14:42:14.412Z,6.00
2022-11-29T14:44:45.332Z,5.00
2022-11-29T14:47:24.013Z,5.00
2022-11-29T14:49:54.300Z,5.13
2022-11-29T14:52:31.601Z,5.20
2022-11-29T14:55:03.197Z,5.30
2022-11-29T14:58:11.577Z,5.33
2022-11-29T15:01:08.190Z,4.90
2022-11-29T15:03:44.046Z,5.07
2022-11-29T15:06:16.077Z,6.00
2022-11-29T15:08:57.234Z,5.93
2022-11-29T15:11:35.652Z,7.10
2022-11-29T15:14:07.273Z,6.13
2022-11-29T15:16:45.195Z,5.50
2022-11-29T15:19:55.115Z,6.93
2022-11-29T15:22:27.538Z,6.40
2022-11-29T15:25:01.104Z,5.83
2022-11-29T15:27:30.000Z,5.60
2022-11-29T15:29:59.892Z,5.83
2022-11-29T15:32:31.038Z,6.40
2022-11-29T15:34:59.876Z,7.47
2022-11-29T15:37:42.631Z,6.30
2022-11-29T15:40:17.753Z,5.40
2022-11-29T15:42:49.882Z,5.70
2022-11-29T15:45:26.639Z,5.37
2022-11-29T15:47:55.748Z,6.40
2022-11-29T15:50:26.695Z,6.50
2022-11-29T15:52:58.660Z,6.90
2022-11-29T15:55:28.949Z,6.00
2022-11-29T15:58:02.628Z,6.20
2022-11-29T16:00:34.180Z,5.43
2022-11-29T16:03:04.227Z,6.33
2022-11-29T16:05:34.358Z,6.57
2022-11-29T16:08:05.292Z,6.70
2022-11-29T16:10:36.956Z,6.80
2022-11-29T16:13:09.165Z,7.07
2022-11-29T16:15:38.605Z,6.43
2022-11-29T16:18:13.166Z,7.30
2022-11-29T16:20:41.858Z,7.00
2022-11-29T16:23:14.733Z,7.33
2022-11-29T16:25:57.471Z,6.30
2022-11-29T16:28:28.978Z,6.43
2022-11-29T16:30:58.436Z,6.87
2022-11-29T16:33:27.352Z,6.13
2022-11-29T16:36:05.396Z,6.90
2022-11-29T16:38:34.257Z,6.33
2022-11-29T16:41:07.247Z,7.23
2022-11-29T16:43:48.596Z,6.73
2022-11-29T16:46:36.664Z,6.87
2022-11-29T16:49:34.404Z,6.50
2022-11-29T16:52:03.936Z,7.27
2022-11-29T16:54:34.216Z,7.20
2022-11-29T16:57:06.787Z,6.67
2022-11-29T16:59:36.435Z,7.53
2022-11-29T17:02:07.309Z,7.37
2022-11-29T17:04:36.070Z,7.13
2022-11-29T17:07:07.504Z,9.77
2022-11-29T17:09:36.626Z,7.60
2022-11-29T17:12:07.293Z,7.67
2022-11-29T17:14:35.951Z,7.17
2022-11-29T17:17:04.628Z,7.90
2022-11-29T17:19:33.276Z,7.87
2022-11-29T17:22:01.979Z,7.37
2022-11-29T17:24:30.646Z,7.70
2022-11-29T17:26:59.343Z,7.00
2022-11-29T17:29:29.312Z,7.00
2022-11-29T17:31:58.680Z,7.97
2022-11-29T17:34:27.376Z,9.03
2022-11-29T17:36:56.042Z,8.10
2022-11-29T17:39:24.638Z,8.13
2022-11-29T17:41:53.244Z,9.03
2022-11-29T17:44:21.894Z,8.63
2022-11-29T17:46:51.898Z,8.70
2022-11-29T17:49:20.501Z,8.47
2022-11-29T17:51:52.388Z,8.93
2022-11-29T17:54:21.961Z,9.70
2022-11-29T17:56:50.703Z,10.70
2022-11-29T17:59:19.361Z,8.70
2022-11-29T18:01:48.168Z,9.03
2022-11-29T18:04:18.372Z,9.30
2022-11-29T18:06:50.041Z,9.90
2022-11-29T18:09:20.020Z,9.00
2022-11-29T18:11:50.430Z,8.77
2022-11-29T18:14:20.920Z,9.77
2022-11-29T18:16:50.021Z,9.67
2022-11-29T18:19:22.425Z,10.10
2022-11-29T18:21:51.632Z,10.20
2022-11-29T18:24:20.465Z,9.83
2022-11-29T18:26:49.114Z,10.30
2022-11-29T18:29:17.757Z,9.27
2022-11-29T18:31:47.170Z,9.63
2022-11-29T18:34:16.166Z,9.73
2022-11-29T18:36:47.508Z,10.37
2022-11-29T18:39:17.662Z,10.47
2022-11-29T18:41:47.795Z,10.70
2022-11-29T18:44:18.542Z,10.63
2022-11-29T18:46:47.491Z,9.63
2022-11-29T18:49:17.567Z,11.00
2022-11-29T18:51:48.547Z,10.70
2022-11-29T18:54:18.537Z,10.77
2022-11-29T18:56:47.486Z,12.33
2022-11-29T18:59:17.804Z,11.60
2022-11-29T19:01:48.418Z,12.53
2022-11-29T19:04:19.022Z,12.50
2022-11-29T19:06:49.490Z,12.10
2022-11-29T19:09:20.842Z,12.47
2022-11-29T19:11:49.790Z,12.00
2022-11-29T19:14:19.092Z,13.63
2022-11-29T19:16:49.365Z,11.57
2022-11-29T19:19:19.621Z,12.90
2022-11-29T19:21:49.769Z,12.53
2022-11-29T19:24:18.991Z,13.30
2022-11-29T19:26:48.868Z,13.67
2022-11-29T19:29:17.588Z,13.70
2022-11-29T19:31:46.230Z,14.97
2022-11-29T19:34:15.076Z,14.93
2022-11-29T19:36:45.041Z,15.37
2022-11-29T19:39:16.794Z,15.03
2022-11-29T19:41:46.631Z,16.60
2022-11-29T19:44:15.565Z,14.20
2022-11-29T19:46:46.842Z,15.00
2022-11-29T19:49:15.734Z,15.00
2022-11-29T19:51:44.735Z,14.80
2022-11-29T19:54:14.798Z,15.30
2022-11-29T19:56:43.625Z,16.53
2022-11-29T19:59:12.414Z,15.90
2022-11-29T20:01:42.691Z,15.37
2022-11-29T20:04:13.068Z,16.30
2022-11-29T20:06:42.133Z,15.83
2022-11-29T20:09:11.179Z,15.97
2022-11-29T20:11:41.208Z,15.40
2022-11-29T20:14:12.220Z,15.13
2022-11-29T20:16:41.168Z,16.47
2022-11-29T20:19:11.626Z,15.50
2022-11-29T20:21:43.551Z,15.83
2022-11-29T20:24:14.269Z,16.50
2022-11-29T20:26:46.583Z,16.17
2022-11-29T20:29:15.862Z,17.00
2022-11-29T20:31:50.127Z,19.10
2022-11-29T20:34:20.934Z,17.00
2022-11-29T20:37:17.220Z,16.40
2022-11-29T20:39:50.390Z,16.37
2022-11-29T20:42:41.367Z,17.10
2022-11-29T20:45:12.078Z,16.93
2022-11-29T20:47:48.737Z,15.90
2022-11-29T20:50:23.182Z,16.97
2022-11-29T20:53:18.109Z,16.60
2022-11-29T20:55:48.390Z,15.63
2022-11-29T20:58:19.542Z,17.10
2022-11-29T21:00:48.496Z,16.57
2022-11-29T21:03:17.603Z,17.20
2022-11-29T21:05:46.422Z,17.63
2022-11-29T21:08:16.282Z,15.67
2022-11-29T21:10:45.363Z,16.03
2022-11-29T21:13:15.423Z,16.10
2022-11-29T21:15:46.303Z,16.83
2022-11-29T21:18:21.903Z,16.80
2022-11-29T21:21:03.723Z,19.17
2022-11-29T21:23:40.863Z,17.00
2022-11-29T21:26:13.910Z,18.93
2022-11-29T21:28:49.240Z,18.43
2022-11-29T21:31:19.967Z,18.50
2022-11-29T21:33:49.100Z,18.43
2022-11-29T21:36:18.960Z,18.37
2022-11-29T21:38:52.415Z,17.53
2022-11-29T21:41:23.536Z,18.03
2022-11-29T21:44:06.511Z,18.30
2022-11-29T21:46:37.556Z,17.43
2022-11-29T21:49:06.570Z,18.80
2022-11-29T21:51:35.251Z,19.97
2022-11-29T21:54:03.932Z,19.17
2022-11-29T21:56:32.609Z,18.73
2022-11-29T21:59:01.277Z,18.87
2022-11-29T22:01:30.263Z,20.33
2022-11-29T22:04:00.426Z,19.00
2022-11-29T22:06:29.488Z,18.63
2022-11-29T22:08:59.920Z,19.17
2022-11-29T22:11:31.747Z,20.97
2022-11-29T22:14:14.429Z,18.60
2022-11-29T22:16:44.272Z,18.07
2022-11-29T22:19:15.346Z,19.60
2022-11-29T22:21:45.451Z,19.63
2022-11-29T22:24:15.283Z,20.13
2022-11-29T22:26:44.520Z,18.50
2022-11-29T22:29:14.672Z,19.30
2022-11-29T22:31:44.742Z,19.97
2022-11-29T22:34:14.793Z,20.17
2022-11-29T22:36:43.611Z,18.60
2022-11-29T22:39:12.586Z,18.30
2022-11-29T22:41:41.768Z,19.30
2022-11-29T22:44:10.406Z,19.97
2022-11-29T22:46:41.041Z,20.83
2022-11-29T22:49:10.518Z,18.90
2022-11-29T22:51:40.628Z,20.60
2022-11-29T22:54:11.439Z,18.80
2022-11-29T22:56:41.258Z,19.70
2022-11-29T22:59:10.527Z,20.10
2022-11-29T23:01:40.449Z,19.67
2022-11-29T23:04:10.229Z,20.80
2022-11-29T23:06:41.982Z,20.47
2022-11-29T23:09:15.142Z,21.07
2022-11-29T23:11:43.969Z,19.47
2022-11-29T23:14:13.058Z,19.80
2022-11-29T23:16:41.780Z,20.87
2022-11-29T23:19:10.504Z,28.27
2022-11-29T23:21:41.991Z,20.10
2022-11-29T23:24:10.710Z,21.57
2022-11-29T23:26:41.444Z,19.87
2022-11-29T23:29:11.881Z,19.07
2022-11-29T23:31:41.181Z,21.00
2022-11-29T23:34:10.132Z,20.33
2022-11-29T23:36:40.150Z,20.40
2022-11-29T23:39:08.977Z,21.00
2022-11-29T23:41:37.902Z,21.47
2022-11-29T23:44:08.567Z,21.03
2022-11-29T23:46:37.423Z,21.77
2022-11-29T23:49:06.047Z,21.83
2022-11-29T23:51:34.640Z,20.40
2022-11-29T23:54:04.792Z,20.47
2022-11-29T23:56:35.411Z,20.20
2022-11-29T23:59:04.281Z,20.60
